sensor_id;sensor_type;location;lat;lon;timestamp;pressure;altitude;pressure_sealevel;temperature;humidity
74921;BME280;63483;47.384;8.860;2023-03-11T00:00:43;93576.03;;;3.01;46.53
74921;BME280;63483;47.384;8.860;2023-03-11T00:03:16;93583.31;;;2.46;45.71
74921;BME280;63483;47.384;8.860;2023-03-11T00:05:43;93557.69;;;2.70;45.41
74921;BME280;63483;47.384;8.860;2023-03-11T00:08:12;93557.38;;;2.81;45.86
74921;BME280;63483;47.384;8.860;2023-03-11T00:10:41;93586.16;;;2.78;45.65
74921;BME280;63483;47.384;8.860;2023-03-11T00:13:10;93597.94;;;2.72;45.68
74921;BME280;63483;47.384;8.860;2023-03-11T00:15:39;93611.53;;;2.82;46.21
74921;BME280;63483;47.384;8.860;2023-03-11T00:18:05;93599.44;;;2.83;45.49
74921;BME280;63483;47.384;8.860;2023-03-11T00:20:33;93590.53;;;2.77;45.36
74921;BME280;63483;47.384;8.860;2023-03-11T00:22:59;93584.53;;;2.77;45.77
74921;BME280;63483;47.384;8.860;2023-03-11T00:25:27;93597.75;;;2.65;45.40
74921;BME280;63483;47.384;8.860;2023-03-11T00:27:53;93610.38;;;2.77;45.80
74921;BME280;63483;47.384;8.860;2023-03-11T00:30:19;93609.78;;;2.83;45.54
74921;BME280;63483;47.384;8.860;2023-03-11T00:32:49;93611.69;;;2.81;46.05
74921;BME280;63483;47.384;8.860;2023-03-11T00:35:18;93592.91;;;2.62;46.01
74921;BME280;63483;47.384;8.860;2023-03-11T00:37:45;93594.69;;;2.70;45.39
74921;BME280;63483;47.384;8.860;2023-03-11T00:40:13;93575.50;;;2.73;45.93
74921;BME280;63483;47.384;8.860;2023-03-11T00:42:39;93582.94;;;2.76;46.40
74921;BME280;63483;47.384;8.860;2023-03-11T00:45:05;93586.13;;;2.70;45.68
74921;BME280;63483;47.384;8.860;2023-03-11T00:47:31;93581.13;;;2.76;46.15
74921;BME280;63483;47.384;8.860;2023-03-11T00:49:56;93585.13;;;2.54;45.50
74921;BME280;63483;47.384;8.860;2023-03-11T00:52:22;93601.09;;;1.89;41.25
74921;BME280;63483;47.384;8.860;2023-03-11T00:54:47;93588.47;;;1.59;43.33
74921;BME280;63483;47.384;8.860;2023-03-11T00:57:12;93592.75;;;1.33;42.83
74921;BME280;63483;47.384;8.860;2023-03-11T00:59:38;93591.06;;;0.87;44.69
74921;BME280;63483;47.384;8.860;2023-03-11T01:02:03;93591.03;;;0.69;43.06
74921;BME280;63483;47.384;8.860;2023-03-11T01:04:29;93577.19;;;0.52;44.39
74921;BME280;63483;47.384;8.860;2023-03-11T01:06:54;93593.41;;;0.63;44.66
74921;BME280;63483;47.384;8.860;2023-03-11T01:09:19;93602.38;;;0.59;44.75
74921;BME280;63483;47.384;8.860;2023-03-11T01:11:45;93603.22;;;0.49;43.79
74921;BME280;63483;47.384;8.860;2023-03-11T01:14:10;93602.94;;;0.52;43.25
74921;BME280;63483;47.384;8.860;2023-03-11T01:16:35;93592.53;;;0.44;41.58
74921;BME280;63483;47.384;8.860;2023-03-11T01:19:02;93586.72;;;0.42;42.10
74921;BME280;63483;47.384;8.860;2023-03-11T01:21:27;93593.00;;;0.30;42.23
74921;BME280;63483;47.384;8.860;2023-03-11T01:23:52;93585.69;;;0.25;41.76
74921;BME280;63483;47.384;8.860;2023-03-11T01:26:18;93596.91;;;0.34;45.62
74921;BME280;63483;47.384;8.860;2023-03-11T01:28:43;93596.75;;;0.45;42.95
74921;BME280;63483;47.384;8.860;2023-03-11T01:31:09;93602.66;;;0.55;55.68
74921;BME280;63483;47.384;8.860;2023-03-11T01:33:35;93603.22;;;0.21;49.09
74921;BME280;63483;47.384;8.860;2023-03-11T01:36:00;93592.28;;;0.10;46.88
74921;BME280;63483;47.384;8.860;2023-03-11T01:38:26;93578.28;;;-0.16;46.55
74921;BME280;63483;47.384;8.860;2023-03-11T01:40:52;93592.28;;;-0.38;46.39
74921;BME280;63483;47.384;8.860;2023-03-11T01:46:22;93570.75;;;-0.46;46.84
74921;BME280;63483;47.384;8.860;2023-03-11T01:48:59;93581.38;;;-0.69;47.52
74921;BME280;63483;47.384;8.860;2023-03-11T01:51:28;93605.59;;;-0.62;45.43
74921;BME280;63483;47.384;8.860;2023-03-11T01:53:56;93586.34;;;-0.58;45.18
74921;BME280;63483;47.384;8.860;2023-03-11T01:56:23;93575.91;;;-0.46;46.58
74921;BME280;63483;47.384;8.860;2023-03-11T01:58:51;93556.78;;;-0.34;46.65
74921;BME280;63483;47.384;8.860;2023-03-11T02:01:19;93556.34;;;-0.29;45.11
74921;BME280;63483;47.384;8.860;2023-03-11T02:03:46;93547.38;;;-0.16;45.15
74921;BME280;63483;47.384;8.860;2023-03-11T02:06:15;93547.91;;;-0.12;43.76
74921;BME280;63483;47.384;8.860;2023-03-11T02:08:41;93566.34;;;-0.17;42.21
74921;BME280;63483;47.384;8.860;2023-03-11T02:11:11;93564.63;;;-0.26;42.16
74921;BME280;63483;47.384;8.860;2023-03-11T02:13:40;93568.63;;;-0.14;43.74
74921;BME280;63483;47.384;8.860;2023-03-11T02:16:07;93563.63;;;-0.15;44.35
74921;BME280;63483;47.384;8.860;2023-03-11T02:18:32;93554.81;;;-0.12;43.42
74921;BME280;63483;47.384;8.860;2023-03-11T02:26:23;93566.94;;;0.61;50.32
74921;BME280;63483;47.384;8.860;2023-03-11T02:28:52;93556.44;;;0.72;49.59
74921;BME280;63483;47.384;8.860;2023-03-11T02:31:18;93530.81;;;0.88;50.00
74921;BME280;63483;47.384;8.860;2023-03-11T02:33:46;93534.88;;;0.91;49.85
74921;BME280;63483;47.384;8.860;2023-03-11T02:36:33;93546.41;;;1.05;50.31
74921;BME280;63483;47.384;8.860;2023-03-11T02:38:59;93535.72;;;1.18;50.09
74921;BME280;63483;47.384;8.860;2023-03-11T02:41:25;93522.09;;;1.25;49.12
74921;BME280;63483;47.384;8.860;2023-03-11T02:43:52;93526.63;;;1.32;49.16
74921;BME280;63483;47.384;8.860;2023-03-11T02:46:18;93546.41;;;1.41;48.93
74921;BME280;63483;47.384;8.860;2023-03-11T02:48:43;93576.22;;;1.43;49.48
74921;BME280;63483;47.384;8.860;2023-03-11T02:51:09;93573.22;;;1.48;48.95
74921;BME280;63483;47.384;8.860;2023-03-11T02:53:38;93581.94;;;1.47;49.86
74921;BME280;63483;47.384;8.860;2023-03-11T02:56:05;93563.22;;;1.45;49.50
74921;BME280;63483;47.384;8.860;2023-03-11T02:58:30;93570.38;;;1.51;49.19
74921;BME280;63483;47.384;8.860;2023-03-11T03:00:56;93566.97;;;1.51;49.46
74921;BME280;63483;47.384;8.860;2023-03-11T03:03:21;93565.56;;;1.56;49.33
74921;BME280;63483;47.384;8.860;2023-03-11T03:05:46;93559.78;;;1.63;48.95
74921;BME280;63483;47.384;8.860;2023-03-11T03:08:12;93555.88;;;1.58;49.36
74921;BME280;63483;47.384;8.860;2023-03-11T03:10:37;93553.81;;;1.62;49.36
74921;BME280;63483;47.384;8.860;2023-03-11T03:13:03;93556.56;;;1.60;49.49
74921;BME280;63483;47.384;8.860;2023-03-11T03:15:28;93558.97;;;1.62;48.69
74921;BME280;63483;47.384;8.860;2023-03-11T03:17:54;93564.06;;;1.54;49.02
74921;BME280;63483;47.384;8.860;2023-03-11T03:20:20;93558.16;;;1.61;49.11
74921;BME280;63483;47.384;8.860;2023-03-11T03:22:47;93558.75;;;1.55;49.09
74921;BME280;63483;47.384;8.860;2023-03-11T03:25:13;93564.59;;;1.57;49.27
74921;BME280;63483;47.384;8.860;2023-03-11T03:27:38;93570.72;;;1.56;49.18
74921;BME280;63483;47.384;8.860;2023-03-11T03:30:04;93563.31;;;1.61;48.72
74921;BME280;63483;47.384;8.860;2023-03-11T03:32:29;93569.00;;;1.65;48.90
74921;BME280;63483;47.384;8.860;2023-03-11T03:34:55;93557.56;;;1.68;48.45
74921;BME280;63483;47.384;8.860;2023-03-11T03:37:26;93567.75;;;1.69;49.01
74921;BME280;63483;47.384;8.860;2023-03-11T03:39:53;93562.06;;;1.66;48.71
74921;BME280;63483;47.384;8.860;2023-03-11T03:42:18;93548.81;;;1.60;49.05
74921;BME280;63483;47.384;8.860;2023-03-11T03:44:43;93549.75;;;1.59;48.58
74921;BME280;63483;47.384;8.860;2023-03-11T03:47:09;93552.72;;;1.65;49.11
74921;BME280;63483;47.384;8.860;2023-03-11T03:49:36;93544.66;;;1.68;48.74
74921;BME280;63483;47.384;8.860;2023-03-11T03:52:01;93555.63;;;1.70;48.99
74921;BME280;63483;47.384;8.860;2023-03-11T03:54:26;93554.00;;;1.69;49.01
74921;BME280;63483;47.384;8.860;2023-03-11T03:56:52;93563.03;;;1.65;48.94
74921;BME280;63483;47.384;8.860;2023-03-11T03:59:17;93564.63;;;1.66;49.20
74921;BME280;63483;47.384;8.860;2023-03-11T04:01:42;93569.31;;;1.62;49.24
74921;BME280;63483;47.384;8.860;2023-03-11T04:04:08;93553.97;;;1.60;48.96
74921;BME280;63483;47.384;8.860;2023-03-11T04:06:33;93559.78;;;1.63;48.93
74921;BME280;63483;47.384;8.860;2023-03-11T04:08:58;93563.19;;;1.63;49.34
74921;BME280;63483;47.384;8.860;2023-03-11T04:11:24;93570.63;;;1.66;48.80
74921;BME280;63483;47.384;8.860;2023-03-11T04:13:49;93579.19;;;1.67;48.87
74921;BME280;63483;47.384;8.860;2023-03-11T04:16:20;93583.38;;;1.68;48.91
74921;BME280;63483;47.384;8.860;2023-03-11T04:18:46;93586.78;;;1.68;49.26
74921;BME280;63483;47.384;8.860;2023-03-11T04:21:12;93579.19;;;1.67;49.10
74921;BME280;63483;47.384;8.860;2023-03-11T04:23:37;93579.97;;;1.67;48.98
74921;BME280;63483;47.384;8.860;2023-03-11T04:26:03;93574.66;;;1.69;49.06
74921;BME280;63483;47.384;8.860;2023-03-11T04:28:28;93571.75;;;1.09;49.54
74921;BME280;63483;47.384;8.860;2023-03-11T04:30:54;93568.28;;;0.65;42.61
74921;BME280;63483;47.384;8.860;2023-03-11T04:33:19;93563.97;;;0.10;41.19
74921;BME280;63483;47.384;8.860;2023-03-11T04:35:44;93567.47;;;-0.29;41.34
74921;BME280;63483;47.384;8.860;2023-03-11T04:38:10;93568.47;;;-0.50;41.82
74921;BME280;63483;47.384;8.860;2023-03-11T04:40:36;93567.00;;;-0.62;41.63
74921;BME280;63483;47.384;8.860;2023-03-11T04:43:05;93556.69;;;-0.52;43.61
74921;BME280;63483;47.384;8.860;2023-03-11T04:45:30;93555.19;;;-0.35;54.89
74921;BME280;63483;47.384;8.860;2023-03-11T04:47:56;93564.72;;;-0.85;49.66
74921;BME280;63483;47.384;8.860;2023-03-11T04:50:21;93557.66;;;-1.31;46.38
74921;BME280;63483;47.384;8.860;2023-03-11T04:52:47;93567.44;;;-1.66;47.06
74921;BME280;63483;47.384;8.860;2023-03-11T04:55:13;93570.41;;;-1.80;47.40
74921;BME280;63483;47.384;8.860;2023-03-11T04:57:39;93567.84;;;-2.11;46.57
74921;BME280;63483;47.384;8.860;2023-03-11T05:00:06;93566.13;;;-2.32;47.46
74921;BME280;63483;47.384;8.860;2023-03-11T05:02:36;93567.69;;;-2.40;47.26
74921;BME280;63483;47.384;8.860;2023-03-11T05:05:02;93571.69;;;-2.27;47.85
74921;BME280;63483;47.384;8.860;2023-03-11T05:07:28;93578.63;;;-2.17;48.35
74921;BME280;63483;47.384;8.860;2023-03-11T05:09:53;93585.16;;;-2.03;46.11
74921;BME280;63483;47.384;8.860;2023-03-11T05:12:18;93579.63;;;-1.99;46.18
74921;BME280;63483;47.384;8.860;2023-03-11T05:14:44;93591.00;;;-1.92;44.58
74921;BME280;63483;47.384;8.860;2023-03-11T05:17:09;93591.69;;;-1.90;44.50
74921;BME280;63483;47.384;8.860;2023-03-11T05:19:36;93597.53;;;-1.87;44.25
74921;BME280;63483;47.384;8.860;2023-03-11T05:22:03;93583.50;;;-1.83;43.16
74921;BME280;63483;47.384;8.860;2023-03-11T05:24:28;93592.13;;;-1.84;41.87
74921;BME280;63483;47.384;8.860;2023-03-11T05:26:54;93598.97;;;-1.95;41.86
74921;BME280;63483;47.384;8.860;2023-03-11T05:29:20;93598.97;;;-1.95;41.51
74921;BME280;63483;47.384;8.860;2023-03-11T05:31:45;93600.81;;;-2.07;41.18
74921;BME280;63483;47.384;8.860;2023-03-11T05:34:11;93598.13;;;-2.05;41.87
74921;BME280;63483;47.384;8.860;2023-03-11T05:36:37;93596.22;;;-2.03;42.45
74921;BME280;63483;47.384;8.860;2023-03-11T05:39:03;93596.78;;;-1.59;47.62
74921;BME280;63483;47.384;8.860;2023-03-11T05:41:29;93599.72;;;-1.23;49.27
74921;BME280;63483;47.384;8.860;2023-03-11T05:43:54;93598.91;;;-1.33;55.51
74921;BME280;63483;47.384;8.860;2023-03-11T05:46:19;93593.91;;;-1.85;49.82
74921;BME280;63483;47.384;8.860;2023-03-11T05:48:45;93603.66;;;-2.31;48.79
74921;BME280;63483;47.384;8.860;2023-03-11T05:51:11;93601.56;;;-2.68;48.99
74921;BME280;63483;47.384;8.860;2023-03-11T05:53:37;93603.28;;;-2.89;49.53
74921;BME280;63483;47.384;8.860;2023-03-11T05:56:03;93610.94;;;-3.10;50.04
74921;BME280;63483;47.384;8.860;2023-03-11T05:58:30;93605.72;;;-3.20;49.37
74921;BME280;63483;47.384;8.860;2023-03-11T06:00:56;93589.59;;;-3.11;49.33
74921;BME280;63483;47.384;8.860;2023-03-11T06:03:22;93590.00;;;-2.95;48.79
74921;BME280;63483;47.384;8.860;2023-03-11T06:05:49;93594.97;;;-2.82;48.23
74921;BME280;63483;47.384;8.860;2023-03-11T06:08:15;93590.41;;;-2.78;47.24
74921;BME280;63483;47.384;8.860;2023-03-11T06:10:41;93598.28;;;-2.70;46.92
74921;BME280;63483;47.384;8.860;2023-03-11T06:13:07;93586.19;;;-2.68;46.43
74921;BME280;63483;47.384;8.860;2023-03-11T06:15:33;93587.16;;;-2.59;46.88
74921;BME280;63483;47.384;8.860;2023-03-11T06:17:58;93586.34;;;-2.60;46.03
74921;BME280;63483;47.384;8.860;2023-03-11T06:20:24;93598.53;;;-2.52;45.08
74921;BME280;63483;47.384;8.860;2023-03-11T06:22:51;93599.34;;;-2.30;45.96
74921;BME280;63483;47.384;8.860;2023-03-11T06:25:16;93617.84;;;-2.05;47.77
74921;BME280;63483;47.384;8.860;2023-03-11T06:27:42;93616.88;;;-1.83;54.55
74921;BME280;63483;47.384;8.860;2023-03-11T06:30:09;93619.09;;;-1.59;57.29
74921;BME280;63483;47.384;8.860;2023-03-11T06:32:35;93621.84;;;-1.41;56.46
74921;BME280;63483;47.384;8.860;2023-03-11T06:35:04;93624.03;;;-1.37;55.83
74921;BME280;63483;47.384;8.860;2023-03-11T06:37:29;93631.06;;;-1.39;56.07
74921;BME280;63483;47.384;8.860;2023-03-11T06:39:55;93643.19;;;-1.00;55.14
74921;BME280;63483;47.384;8.860;2023-03-11T06:42:21;93648.94;;;-1.17;55.80
74921;BME280;63483;47.384;8.860;2023-03-11T06:44:51;93651.44;;;-0.96;54.47
74921;BME280;63483;47.384;8.860;2023-03-11T06:47:16;93656.63;;;-0.77;54.63
74921;BME280;63483;47.384;8.860;2023-03-11T06:49:42;93666.63;;;-0.64;53.86
74921;BME280;63483;47.384;8.860;2023-03-11T06:52:08;93661.19;;;-0.61;54.27
74921;BME280;63483;47.384;8.860;2023-03-11T06:54:34;93670.28;;;-0.57;53.20
74921;BME280;63483;47.384;8.860;2023-03-11T06:57:00;93664.19;;;-0.75;54.12
74921;BME280;63483;47.384;8.860;2023-03-11T06:59:25;93673.09;;;-0.99;54.76
74921;BME280;63483;47.384;8.860;2023-03-11T07:01:52;93680.13;;;-1.01;54.79
74921;BME280;63483;47.384;8.860;2023-03-11T07:04:18;93683.31;;;-1.09;53.95
74921;BME280;63483;47.384;8.860;2023-03-11T07:06:43;93678.47;;;-1.02;53.94
74921;BME280;63483;47.384;8.860;2023-03-11T07:09:08;93680.16;;;-0.91;53.33
74921;BME280;63483;47.384;8.860;2023-03-11T07:11:34;93680.16;;;-0.91;51.53
74921;BME280;63483;47.384;8.860;2023-03-11T07:13:59;93684.69;;;-1.05;48.71
74921;BME280;63483;47.384;8.860;2023-03-11T07:16:26;93679.19;;;-1.31;49.28
74921;BME280;63483;47.384;8.860;2023-03-11T07:18:54;93681.69;;;-1.20;46.24
74921;BME280;63483;47.384;8.860;2023-03-11T07:21:22;93681.75;;;-1.00;51.49
74921;BME280;63483;47.384;8.860;2023-03-11T07:23:54;93690.97;;;-0.97;52.30
74921;BME280;63483;47.384;8.860;2023-03-11T07:26:20;93701.84;;;-1.05;53.05
74921;BME280;63483;47.384;8.860;2023-03-11T07:28:46;93698.28;;;-0.93;51.88
74921;BME280;63483;47.384;8.860;2023-03-11T07:31:19;93702.88;;;-0.87;52.51
74921;BME280;63483;47.384;8.860;2023-03-11T07:33:45;93703.16;;;-0.90;50.54
74921;BME280;63483;47.384;8.860;2023-03-11T07:36:15;93700.13;;;-0.95;48.95
74921;BME280;63483;47.384;8.860;2023-03-11T07:38:41;93692.72;;;-1.39;46.30
74921;BME280;63483;47.384;8.860;2023-03-11T07:41:08;93696.78;;;-1.67;45.22
74921;BME280;63483;47.384;8.860;2023-03-11T07:43:35;93700.22;;;-1.78;45.52
74921;BME280;63483;47.384;8.860;2023-03-11T07:46:05;93699.50;;;-1.59;48.73
74921;BME280;63483;47.384;8.860;2023-03-11T07:48:31;93691.75;;;-1.38;50.91
74921;BME280;63483;47.384;8.860;2023-03-11T07:51:11;93702.25;;;-1.20;48.00
74921;BME280;63483;47.384;8.860;2023-03-11T07:53:37;93692.41;;;-1.45;46.01
74921;BME280;63483;47.384;8.860;2023-03-11T07:56:05;93686.03;;;-1.10;49.23
74921;BME280;63483;47.384;8.860;2023-03-11T07:58:31;93689.19;;;-0.97;49.37
74921;BME280;63483;47.384;8.860;2023-03-11T08:01:02;93696.66;;;-0.74;50.20
74921;BME280;63483;47.384;8.860;2023-03-11T08:03:28;93698.56;;;-0.57;50.79
74921;BME280;63483;47.384;8.860;2023-03-11T08:05:53;93686.69;;;-0.38;50.70
74921;BME280;63483;47.384;8.860;2023-03-11T08:08:19;93704.53;;;-0.27;50.98
74921;BME280;63483;47.384;8.860;2023-03-11T08:10:44;93694.09;;;-0.16;50.61
74921;BME280;63483;47.384;8.860;2023-03-11T08:13:09;93705.75;;;-0.11;50.56
74921;BME280;63483;47.384;8.860;2023-03-11T08:15:36;93714.28;;;-0.01;51.23
74921;BME280;63483;47.384;8.860;2023-03-11T08:18:02;93713.88;;;0.03;51.20
74921;BME280;63483;47.384;8.860;2023-03-11T08:20:27;93715.38;;;-0.33;52.45
74921;BME280;63483;47.384;8.860;2023-03-11T08:22:53;93714.09;;;-0.88;46.51
74921;BME280;63483;47.384;8.860;2023-03-11T08:25:18;93718.75;;;-0.62;50.61
74921;BME280;63483;47.384;8.860;2023-03-11T08:27:43;93728.78;;;-0.59;50.38
74921;BME280;63483;47.384;8.860;2023-03-11T08:30:09;93729.84;;;-0.42;50.97
74921;BME280;63483;47.384;8.860;2023-03-11T08:32:34;93730.28;;;-0.37;50.18
74921;BME280;63483;47.384;8.860;2023-03-11T08:35:00;93736.25;;;-0.26;50.99
74921;BME280;63483;47.384;8.860;2023-03-11T08:37:25;93740.28;;;-0.24;50.93
74921;BME280;63483;47.384;8.860;2023-03-11T08:39:50;93747.88;;;-0.52;48.67
74921;BME280;63483;47.384;8.860;2023-03-11T08:42:16;93754.63;;;-0.51;49.20
74921;BME280;63483;47.384;8.860;2023-03-11T08:44:43;93756.91;;;-0.67;42.47
74921;BME280;63483;47.384;8.860;2023-03-11T08:47:08;93769.41;;;-0.93;42.77
74921;BME280;63483;47.384;8.860;2023-03-11T08:49:34;93762.28;;;-0.90;44.18
74921;BME280;63483;47.384;8.860;2023-03-11T08:52:00;93754.44;;;-0.88;47.66
74921;BME280;63483;47.384;8.860;2023-03-11T08:54:26;93756.63;;;-0.64;49.69
74921;BME280;63483;47.384;8.860;2023-03-11T08:56:51;93757.63;;;-0.45;50.25
74921;BME280;63483;47.384;8.860;2023-03-11T08:59:17;93761.69;;;-0.33;49.90
74921;BME280;63483;47.384;8.860;2023-03-11T09:01:42;93766.28;;;-0.27;50.98
74921;BME280;63483;47.384;8.860;2023-03-11T09:04:07;93762.50;;;-0.23;50.40
74921;BME280;63483;47.384;8.860;2023-03-11T09:06:33;93764.97;;;-0.11;50.78
74921;BME280;63483;47.384;8.860;2023-03-11T09:08:58;93762.50;;;-0.03;50.82
74921;BME280;63483;47.384;8.860;2023-03-11T09:11:24;93754.34;;;0.01;50.50
74921;BME280;63483;47.384;8.860;2023-03-11T09:13:50;93761.56;;;-0.22;50.88
74921;BME280;63483;47.384;8.860;2023-03-11T09:16:21;93757.91;;;0.00;50.68
74921;BME280;63483;47.384;8.860;2023-03-11T09:18:46;93761.16;;;0.02;50.43
74921;BME280;63483;47.384;8.860;2023-03-11T09:21:12;93772.25;;;0.03;50.16
74921;BME280;63483;47.384;8.860;2023-03-11T09:23:38;93773.47;;;-0.21;47.17
74921;BME280;63483;47.384;8.860;2023-03-11T09:26:04;93780.63;;;-0.34;50.31
74921;BME280;63483;47.384;8.860;2023-03-11T09:28:29;93779.03;;;-0.16;50.86
74921;BME280;63483;47.384;8.860;2023-03-11T09:30:55;93779.31;;;-0.19;50.69
74921;BME280;63483;47.384;8.860;2023-03-11T09:33:21;93776.88;;;-0.01;51.22
74921;BME280;63483;47.384;8.860;2023-03-11T09:35:46;93782.69;;;0.11;50.70
74921;BME280;63483;47.384;8.860;2023-03-11T09:38:12;93774.97;;;0.11;50.21
74921;BME280;63483;47.384;8.860;2023-03-11T09:43:16;93783.78;;;0.09;47.58
74921;BME280;63483;47.384;8.860;2023-03-11T09:45:51;93792.84;;;0.13;49.66
74921;BME280;63483;47.384;8.860;2023-03-11T09:50:59;93792.03;;;0.32;49.73
74921;BME280;63483;47.384;8.860;2023-03-11T09:53:39;93800.41;;;0.44;49.29
74921;BME280;63483;47.384;8.860;2023-03-11T09:56:07;93807.34;;;0.33;49.77
74921;BME280;63483;47.384;8.860;2023-03-11T09:58:43;93809.22;;;0.41;49.44
74921;BME280;63483;47.384;8.860;2023-03-11T10:03:38;93815.31;;;0.40;49.53
74921;BME280;63483;47.384;8.860;2023-03-11T10:06:28;93810.16;;;0.50;48.95
74921;BME280;63483;47.384;8.860;2023-03-11T10:17:27;93815.69;;;0.65;49.54
74921;BME280;63483;47.384;8.860;2023-03-11T10:20:20;93817.47;;;0.64;49.22
74921;BME280;63483;47.384;8.860;2023-03-11T10:22:59;93819.88;;;0.76;48.88
74921;BME280;63483;47.384;8.860;2023-03-11T10:25:41;93812.25;;;0.94;48.72
74921;BME280;63483;47.384;8.860;2023-03-11T10:28:18;93812.72;;;1.07;48.29
74921;BME280;63483;47.384;8.860;2023-03-11T10:30:48;93813.28;;;1.01;48.40
74921;BME280;63483;47.384;8.860;2023-03-11T10:36:03;93812.44;;;1.10;48.33
74921;BME280;63483;47.384;8.860;2023-03-11T10:38:33;93813.28;;;1.01;48.43
74921;BME280;63483;47.384;8.860;2023-03-11T10:41:04;93813.53;;;1.07;47.38
74921;BME280;63483;47.384;8.860;2023-03-11T10:43:34;93814.34;;;1.08;47.89
74921;BME280;63483;47.384;8.860;2023-03-11T10:46:10;93814.66;;;0.95;48.27
74921;BME280;63483;47.384;8.860;2023-03-11T10:48:38;93811.09;;;1.06;47.61
74921;BME280;63483;47.384;8.860;2023-03-11T10:51:15;93807.00;;;1.13;48.20
74921;BME280;63483;47.384;8.860;2023-03-11T10:53:51;93806.59;;;1.08;48.02
74921;BME280;63483;47.384;8.860;2023-03-11T10:56:34;93812.94;;;1.23;47.80
74921;BME280;63483;47.384;8.860;2023-03-11T10:59:02;93805.19;;;1.23;47.63
74921;BME280;63483;47.384;8.860;2023-03-11T11:01:29;93810.06;;;1.26;47.21
74921;BME280;63483;47.384;8.860;2023-03-11T11:03:56;93802.03;;;1.30;47.59
74921;BME280;63483;47.384;8.860;2023-03-11T11:06:28;93809.50;;;1.33;47.29
74921;BME280;63483;47.384;8.860;2023-03-11T11:11:41;93807.00;;;1.41;47.03
74921;BME280;63483;47.384;8.860;2023-03-11T11:14:07;93810.94;;;1.45;46.73
74921;BME280;63483;47.384;8.860;2023-03-11T11:16:34;93805.81;;;1.35;47.75
74921;BME280;63483;47.384;8.860;2023-03-11T11:19:13;93804.16;;;1.44;46.89
74921;BME280;63483;47.384;8.860;2023-03-11T11:21:46;93814.19;;;1.47;47.32
74921;BME280;63483;47.384;8.860;2023-03-11T11:24:24;93806.63;;;1.64;46.90
74921;BME280;63483;47.384;8.860;2023-03-11T11:27:02;93806.44;;;1.75;45.91
74921;BME280;63483;47.384;8.860;2023-03-11T11:29:28;93799.78;;;1.54;40.41
74921;BME280;63483;47.384;8.860;2023-03-11T11:32:15;93797.53;;;1.04;41.12
74921;BME280;63483;47.384;8.860;2023-03-11T11:34:57;93794.78;;;0.78;40.75
74921;BME280;63483;47.384;8.860;2023-03-11T11:37:25;93791.66;;;0.74;39.21
74921;BME280;63483;47.384;8.860;2023-03-11T11:40:00;93797.97;;;0.42;38.63
74921;BME280;63483;47.384;8.860;2023-03-11T11:42:28;93808.31;;;0.23;38.38
74921;BME280;63483;47.384;8.860;2023-03-11T11:45:12;93807.84;;;0.56;45.73
74921;BME280;63483;47.384;8.860;2023-03-11T11:47:42;93800.41;;;0.34;49.75
74921;BME280;63483;47.384;8.860;2023-03-11T11:50:25;93800.03;;;-0.10;44.13
74921;BME280;63483;47.384;8.860;2023-03-11T11:53:06;93799.06;;;-0.39;44.43
74921;BME280;63483;47.384;8.860;2023-03-11T11:55:39;93787.00;;;-0.48;45.27
74921;BME280;63483;47.384;8.860;2023-03-11T11:58:09;93785.31;;;-0.69;44.85
74921;BME280;63483;47.384;8.860;2023-03-11T12:00:57;93787.06;;;-0.89;44.54
74921;BME280;63483;47.384;8.860;2023-03-11T12:03:40;93783.75;;;-1.00;44.85
74921;BME280;63483;47.384;8.860;2023-03-11T12:09:04;93779.78;;;-0.74;48.25
74921;BME280;63483;47.384;8.860;2023-03-11T12:12:07;93781.03;;;-0.58;45.56
74921;BME280;63483;47.384;8.860;2023-03-11T12:17:15;93770.63;;;-0.18;48.32
74921;BME280;63483;47.384;8.860;2023-03-11T12:19:49;93773.63;;;-0.03;46.39
74921;BME280;63483;47.384;8.860;2023-03-11T12:25:38;93769.56;;;-0.05;43.61
74921;BME280;63483;47.384;8.860;2023-03-11T12:28:23;93777.94;;;-0.03;44.15
74921;BME280;63483;47.384;8.860;2023-03-11T12:31:11;93771.16;;;0.06;43.21
74921;BME280;63483;47.384;8.860;2023-03-11T12:33:41;93767.09;;;0.03;42.90
74921;BME280;63483;47.384;8.860;2023-03-11T12:36:24;93756.13;;;0.01;42.01
74921;BME280;63483;47.384;8.860;2023-03-11T12:38:53;93765.34;;;0.03;41.89
74921;BME280;63483;47.384;8.860;2023-03-11T12:41:27;93767.50;;;0.08;41.66
74921;BME280;63483;47.384;8.860;2023-03-11T12:43:59;93763.28;;;0.27;46.17
74921;BME280;63483;47.384;8.860;2023-03-11T12:49:26;93767.94;;;-0.26;50.56
74921;BME280;63483;47.384;8.860;2023-03-11T13:05:21;93756.88;;;-1.17;53.64
74921;BME280;63483;47.384;8.860;2023-03-11T13:10:43;93762.00;;;-0.87;48.59
74921;BME280;63483;47.384;8.860;2023-03-11T13:13:34;93752.84;;;-0.70;50.05
74921;BME280;63483;47.384;8.860;2023-03-11T13:18:40;93750.03;;;-0.57;45.92
74921;BME280;63483;47.384;8.860;2023-03-11T13:29:56;93761.41;;;-0.10;52.50
74921;BME280;63483;47.384;8.860;2023-03-11T13:35:02;93758.34;;;0.53;52.06
74921;BME280;63483;47.384;8.860;2023-03-11T13:40:16;93766.28;;;0.79;51.28
74921;BME280;63483;47.384;8.860;2023-03-11T13:42:49;93761.19;;;0.97;51.74
74921;BME280;63483;47.384;8.860;2023-03-11T13:45:28;93769.91;;;1.14;51.63
74921;BME280;63483;47.384;8.860;2023-03-11T13:48:02;93769.88;;;1.24;51.49
74921;BME280;63483;47.384;8.860;2023-03-11T13:50:36;93772.41;;;1.34;50.64
74921;BME280;63483;47.384;8.860;2023-03-11T13:53:14;93774.81;;;1.45;51.14
74921;BME280;63483;47.384;8.860;2023-03-11T13:55:45;93781.13;;;1.60;50.87
74921;BME280;63483;47.384;8.860;2023-03-11T13:58:21;93783.63;;;1.70;50.53
74921;BME280;63483;47.384;8.860;2023-03-11T14:00:49;93780.03;;;1.81;50.46
74921;BME280;63483;47.384;8.860;2023-03-11T14:03:16;93785.94;;;1.91;50.75
74921;BME280;63483;47.384;8.860;2023-03-11T14:05:47;93782.31;;;2.02;50.50
74921;BME280;63483;47.384;8.860;2023-03-11T14:08:24;93782.25;;;2.12;50.07
74921;BME280;63483;47.384;8.860;2023-03-11T14:11:02;93777.66;;;2.24;49.40
74921;BME280;63483;47.384;8.860;2023-03-11T14:13:37;93775.06;;;2.24;49.68
74921;BME280;63483;47.384;8.860;2023-03-11T14:16:05;93783.97;;;2.29;49.49
74921;BME280;63483;47.384;8.860;2023-03-11T14:18:42;93781.91;;;2.33;49.77
74921;BME280;63483;47.384;8.860;2023-03-11T14:21:31;93786.94;;;2.35;49.40
74921;BME280;63483;47.384;8.860;2023-03-11T14:23:57;93781.75;;;2.35;49.34
74921;BME280;63483;47.384;8.860;2023-03-11T14:26:27;93783.25;;;2.37;48.97